createdAt,value
2022-12-04T00:00:33.813Z,4.00
2022-12-04T00:03:00.739Z,4.00
2022-12-04T00:05:27.645Z,3.90
2022-12-04T00:07:54.683Z,3.90
2022-12-04T00:10:21.655Z,3.80
2022-12-04T00:12:48.542Z,3.80
2022-12-04T00:15:25.245Z,3.70
2022-12-04T00:17:52.490Z,3.60
2022-12-04T00:20:20.210Z,3.60
2022-12-04T00:22:47.091Z,3.70
2022-12-04T00:25:14.038Z,3.60
2022-12-04T00:27:41.282Z,3.70
2022-12-04T00:30:08.641Z,3.80
2022-12-04T00:32:36.015Z,3.80
2022-12-04T00:35:03.002Z,3.90
2022-12-04T00:37:29.971Z,3.80
2022-12-04T00:39:57.222Z,3.80
2022-12-04T00:42:24.365Z,3.80
2022-12-04T00:44:51.241Z,3.80
2022-12-04T00:47:18.140Z,3.90
2022-12-04T00:49:45.050Z,4.00
2022-12-04T00:52:11.996Z,4.00
2022-12-04T00:54:38.919Z,4.10
2022-12-04T00:57:05.995Z,4.10
2022-12-04T00:59:32.955Z,4.10
2022-12-04T01:01:59.869Z,4.00
2022-12-04T01:04:26.785Z,4.00
2022-12-04T01:06:53.731Z,3.90
2022-12-04T01:09:20.689Z,3.90
2022-12-04T01:11:47.652Z,3.90
2022-12-04T01:14:14.670Z,4.00
2022-12-04T01:16:41.836Z,3.90
2022-12-04T01:19:11.917Z,4.00
2022-12-04T01:21:39.655Z,4.00
2022-12-04T01:24:07.177Z,4.00
2022-12-04T01:26:34.395Z,3.90
2022-12-04T01:29:01.889Z,3.90
2022-12-04T01:31:29.022Z,3.90
2022-12-04T01:33:55.962Z,3.90
2022-12-04T01:36:25.593Z,3.90
2022-12-04T01:38:53.004Z,3.90
2022-12-04T01:41:23.448Z,3.90
2022-12-04T01:44:10.249Z,3.90
2022-12-04T01:46:37.507Z,3.90
2022-12-04T01:49:06.830Z,3.80
2022-12-04T01:51:41.449Z,3.70
2022-12-04T01:54:14.853Z,3.70
2022-12-04T01:56:43.774Z,3.70
2022-12-04T01:59:15.573Z,3.70
2022-12-04T02:02:09.006Z,3.80
2022-12-04T02:04:38.746Z,3.80
2022-12-04T02:07:05.774Z,3.70
2022-12-04T02:09:33.826Z,3.70
2022-12-04T02:12:10.172Z,3.80
2022-12-04T02:14:55.677Z,3.90
2022-12-04T02:17:39.722Z,4.00
2022-12-04T02:20:43.726Z,4.00
2022-12-04T02:23:19.838Z,3.90
2022-12-04T02:26:14.598Z,4.00
2022-12-04T02:29:00.636Z,4.00
2022-12-04T02:31:34.921Z,4.00
2022-12-04T02:34:13.107Z,4.00
2022-12-04T02:36:52.681Z,3.90
2022-12-04T02:39:56.461Z,4.00
2022-12-04T02:42:47.942Z,4.10
2022-12-04T02:45:23.923Z,4.20
2022-12-04T02:47:53.655Z,4.30
2022-12-04T02:50:22.655Z,4.20
2022-12-04T02:53:27.627Z,4.20
2022-12-04T02:56:02.396Z,4.30
2022-12-04T02:58:31.291Z,4.30
2022-12-04T03:01:01.336Z,4.30
2022-12-04T03:03:31.252Z,4.30
2022-12-04T03:06:07.804Z,4.30
2022-12-04T03:08:41.785Z,4.30
2022-12-04T03:11:08.724Z,4.20
2022-12-04T03:13:41.574Z,4.20
2022-12-04T03:16:21.084Z,4.10
2022-12-04T03:19:15.233Z,4.10
2022-12-04T03:21:50.387Z,4.20
2022-12-04T03:24:37.738Z,4.00
2022-12-04T03:27:20.144Z,4.00
2022-12-04T03:29:57.623Z,3.90
2022-12-04T03:32:34.854Z,3.90
2022-12-04T03:35:10.956Z,3.90
2022-12-04T03:38:02.771Z,3.90
2022-12-04T03:40:55.211Z,3.90
2022-12-04T03:43:25.003Z,3.90
2022-12-04T03:46:10.122Z,4.00
2022-12-04T03:48:50.275Z,4.00
2022-12-04T03:51:32.309Z,4.00
2022-12-04T03:54:13.183Z,3.90
2022-12-04T03:56:54.530Z,3.70
2022-12-04T03:59:27.760Z,3.50
2022-12-04T04:01:59.728Z,3.40
2022-12-04T04:04:33.968Z,3.30
2022-12-04T04:07:11.583Z,3.20
2022-12-04T04:09:42.402Z,3.30
2022-12-04T04:12:13.525Z,3.30
2022-12-04T04:15:05.948Z,3.20
2022-12-04T04:17:56.725Z,3.20
2022-12-04T04:20:47.959Z,3.30
2022-12-04T04:23:36.768Z,3.40
2022-12-04T04:26:05.249Z,3.50
2022-12-04T04:28:35.126Z,3.50
2022-12-04T04:31:38.243Z,3.50
2022-12-04T04:34:12.388Z,3.50
2022-12-04T04:36:51.321Z,3.50
2022-12-04T04:39:53.242Z,3.50
2022-12-04T04:42:40.232Z,3.50
2022-12-04T04:45:09.975Z,3.60
2022-12-04T04:47:59.167Z,3.60
2022-12-04T04:50:26.783Z,3.60
2022-12-04T04:52:59.294Z,3.70
2022-12-04T04:55:26.445Z,3.70
2022-12-04T04:57:53.345Z,3.70
2022-12-04T05:00:23.064Z,3.70
2022-12-04T05:02:50.436Z,3.70
2022-12-04T05:05:18.113Z,3.70
2022-12-04T05:07:45.089Z,3.70
2022-12-04T05:10:12.062Z,3.70
2022-12-04T05:12:38.994Z,3.70
2022-12-04T05:15:06.336Z,3.70
2022-12-04T05:17:35.626Z,3.70
2022-12-04T05:20:04.203Z,3.70
2022-12-04T05:22:33.764Z,3.60
2022-12-04T05:25:00.822Z,3.60
2022-12-04T05:27:29.408Z,3.50
2022-12-04T05:29:58.707Z,3.50
2022-12-04T05:32:27.895Z,3.50
2022-12-04T05:34:55.918Z,3.50
2022-12-04T05:37:23.237Z,3.50
2022-12-04T05:39:50.185Z,3.40
2022-12-04T05:42:17.115Z,3.40
2022-12-04T05:44:44.009Z,3.40
2022-12-04T05:47:11.089Z,3.30
2022-12-04T05:49:38.063Z,3.40
2022-12-04T05:52:06.065Z,3.40
2022-12-04T05:54:33.002Z,3.40
2022-12-04T05:57:00.237Z,3.40
2022-12-04T05:59:27.239Z,3.40
2022-12-04T06:01:54.243Z,3.40
2022-12-04T06:04:21.341Z,3.40
2022-12-04T06:06:48.314Z,3.40
2022-12-04T06:09:15.307Z,3.40
2022-12-04T06:11:43.283Z,3.40
2022-12-04T06:14:14.378Z,3.40
2022-12-04T06:16:44.679Z,3.50
2022-12-04T06:19:17.268Z,3.50
2022-12-04T06:21:46.454Z,3.60
2022-12-04T06:24:16.059Z,3.60
2022-12-04T06:27:04.000Z,3.60
2022-12-04T06:29:30.245Z,3.60
2022-12-04T06:31:57.243Z,3.70
2022-12-04T06:34:24.364Z,3.70
2022-12-04T06:36:51.275Z,3.70
2022-12-04T06:39:19.130Z,3.80
2022-12-04T06:41:47.671Z,3.80
2022-12-04T06:44:15.910Z,3.70
2022-12-04T06:46:46.853Z,3.80
2022-12-04T06:49:14.720Z,3.80
2022-12-04T06:51:41.725Z,3.80
2022-12-04T06:54:10.302Z,3.80
2022-12-04T06:56:37.397Z,3.80
2022-12-04T06:59:05.845Z,3.80
2022-12-04T07:01:34.629Z,3.80
2022-12-04T07:04:04.036Z,3.80
2022-12-04T07:06:36.636Z,3.90
2022-12-04T07:09:07.690Z,3.80
2022-12-04T07:11:35.184Z,3.90
2022-12-04T07:14:02.548Z,3.80
2022-12-04T07:16:32.807Z,3.80
2022-12-04T07:19:03.805Z,3.80
2022-12-04T07:21:32.081Z,3.80
2022-12-04T07:24:01.148Z,3.70
2022-12-04T07:26:29.919Z,3.70
2022-12-04T07:28:57.937Z,3.70
2022-12-04T07:31:26.795Z,3.70
2022-12-04T07:33:55.385Z,3.60
2022-12-04T07:36:23.720Z,3.60
2022-12-04T07:38:51.284Z,3.50
2022-12-04T07:41:19.354Z,3.50
2022-12-04T07:43:47.127Z,3.50
2022-12-04T07:46:16.891Z,3.50
2022-12-04T07:48:44.166Z,3.50
2022-12-04T07:51:19.969Z,3.50
2022-12-04T07:53:47.362Z,3.40
2022-12-04T07:56:15.100Z,3.40
2022-12-04T07:58:42.788Z,3.30
2022-12-04T08:01:16.474Z,3.30
2022-12-04T08:03:48.438Z,3.30
2022-12-04T08:06:20.029Z,3.30
2022-12-04T08:08:48.205Z,3.40
2022-12-04T08:11:18.424Z,3.50
2022-12-04T08:13:45.973Z,3.60
2022-12-04T08:16:14.621Z,3.60
2022-12-04T08:18:46.824Z,3.60
2022-12-04T08:21:16.462Z,3.60
2022-12-04T08:23:44.424Z,3.70
2022-12-04T08:26:12.509Z,3.70
2022-12-04T08:28:40.092Z,3.80
2022-12-04T08:31:16.435Z,3.80
2022-12-04T08:33:44.686Z,3.90
2022-12-04T08:36:13.883Z,4.00
2022-12-04T08:38:41.263Z,4.00
2022-12-04T08:41:14.584Z,4.00
2022-12-04T08:43:42.266Z,4.00
2022-12-04T08:46:12.275Z,4.10
2022-12-04T08:48:39.887Z,4.10
2022-12-04T08:51:08.308Z,4.10
2022-12-04T08:53:38.992Z,4.10
2022-12-04T08:56:06.281Z,4.10
2022-12-04T08:58:33.203Z,4.10
2022-12-04T09:01:07.709Z,4.10
2022-12-04T09:03:34.982Z,4.10
2022-12-04T09:06:03.933Z,4.00
2022-12-04T09:08:32.294Z,4.00
2022-12-04T09:11:10.388Z,4.10
2022-12-04T09:13:37.999Z,4.10
2022-12-04T09:16:07.293Z,4.10
2022-12-04T09:18:35.435Z,4.10
2022-12-04T09:21:05.924Z,4.10
2022-12-04T09:23:34.347Z,4.10
2022-12-04T09:26:01.882Z,4.10
2022-12-04T09:28:29.634Z,4.20
2022-12-04T09:31:01.950Z,4.30
2022-12-04T09:33:30.636Z,4.40
2022-12-04T09:36:02.013Z,4.50
2022-12-04T09:38:30.401Z,4.60
2022-12-04T09:41:16.287Z,4.60
2022-12-04T09:44:05.533Z,4.50
2022-12-04T09:46:51.993Z,4.50
2022-12-04T09:49:28.398Z,4.40
2022-12-04T09:52:00.248Z,4.40
2022-12-04T09:54:39.321Z,4.40
2022-12-04T09:57:24.210Z,4.40
2022-12-04T09:59:53.156Z,4.40
2022-12-04T10:02:42.149Z,4.50
2022-12-04T10:05:18.522Z,4.50
2022-12-04T10:08:08.905Z,4.50
2022-12-04T10:10:39.926Z,4.50
2022-12-04T10:13:21.918Z,4.50
2022-12-04T10:16:23.436Z,4.50
2022-12-04T10:19:08.940Z,4.60
2022-12-04T10:21:52.041Z,4.60
2022-12-04T10:24:36.562Z,4.60
2022-12-04T10:27:14.860Z,4.50
2022-12-04T10:29:43.832Z,4.50
2022-12-04T10:32:24.484Z,4.60
2022-12-04T10:34:54.867Z,4.60
2022-12-04T10:37:23.447Z,4.60
2022-12-04T10:40:01.601Z,4.60
2022-12-04T10:42:28.683Z,4.70
2022-12-04T10:44:55.965Z,4.70
2022-12-04T10:47:24.828Z,4.80
2022-12-04T10:50:05.712Z,4.80
2022-12-04T10:52:32.630Z,4.90
2022-12-04T10:55:00.921Z,4.90
2022-12-04T10:57:40.717Z,5.00
2022-12-04T11:00:33.091Z,5.10
2022-12-04T11:03:09.692Z,5.30
2022-12-04T11:05:46.071Z,5.50
2022-12-04T11:08:26.385Z,5.60
2022-12-04T11:11:06.389Z,5.50
2022-12-04T11:13:33.841Z,5.50
2022-12-04T11:16:00.938Z,5.40
2022-12-04T11:18:30.976Z,5.40
2022-12-04T11:21:03.172Z,5.40
2022-12-04T11:23:41.401Z,5.30
2022-12-04T11:26:09.252Z,5.20
2022-12-04T11:28:42.532Z,5.30
2022-12-04T11:31:16.746Z,5.20
2022-12-04T11:33:54.914Z,5.20
2022-12-04T11:36:42.002Z,5.20
2022-12-04T11:39:18.482Z,5.30
2022-12-04T11:41:45.807Z,5.30
2022-12-04T11:44:39.088Z,5.30
2022-12-04T11:47:16.182Z,5.30
2022-12-04T11:49:44.038Z,5.20
2022-12-04T11:52:39.017Z,5.20
2022-12-04T11:55:29.510Z,5.20
2022-12-04T11:58:23.869Z,5.10
2022-12-04T12:01:29.320Z,5.10
2022-12-04T12:04:14.116Z,5.10
2022-12-04T12:07:16.714Z,5.10
2022-12-04T12:10:03.854Z,5.10
2022-12-04T12:13:07.822Z,5.10
2022-12-04T12:15:55.975Z,5.10
2022-12-04T12:18:53.858Z,5.10
2022-12-04T12:21:34.314Z,5.50
2022-12-04T12:24:30.623Z,5.90
2022-12-04T12:27:16.443Z,5.90
2022-12-04T12:30:04.229Z,5.80
2022-12-04T12:33:01.318Z,5.70
2022-12-04T12:36:00.808Z,5.60
2022-12-04T12:38:49.785Z,5.60
2022-12-04T12:41:19.858Z,5.60
2022-12-04T12:44:01.085Z,5.60
2022-12-04T12:46:36.188Z,5.60
2022-12-04T12:49:05.847Z,5.50
2022-12-04T12:51:39.042Z,5.60
2022-12-04T12:54:37.198Z,5.60
2022-12-04T12:57:19.358Z,5.50
2022-12-04T12:59:57.230Z,5.50
2022-12-04T13:02:56.232Z,5.50
2022-12-04T13:05:30.550Z,5.60
2022-12-04T13:08:24.510Z,5.60
2022-12-04T13:11:11.987Z,5.50
2022-12-04T13:13:53.250Z,5.50
2022-12-04T13:16:24.545Z,5.50
2022-12-04T13:19:10.487Z,5.40
2022-12-04T13:22:08.380Z,5.40
2022-12-04T13:24:56.719Z,5.40
2022-12-04T13:27:43.375Z,5.40
2022-12-04T13:30:21.068Z,5.40
2022-12-04T13:33:25.767Z,5.40
2022-12-04T13:35:52.659Z,5.40
2022-12-04T13:38:51.558Z,5.40
2022-12-04T13:41:24.706Z,5.50
2022-12-04T13:43:53.660Z,5.40
2022-12-04T13:46:34.282Z,5.40
2022-12-04T13:49:35.042Z,5.40
2022-12-04T13:52:04.891Z,5.30
2022-12-04T13:54:36.928Z,5.30
2022-12-04T13:57:15.804Z,5.30
2022-12-04T13:59:43.629Z,5.30
2022-12-04T14:02:30.375Z,5.20
2022-12-04T14:05:03.513Z,5.20
2022-12-04T14:07:55.693Z,5.20
2022-12-04T14:10:33.284Z,5.20
2022-12-04T14:13:42.308Z,5.20
2022-12-04T14:16:22.928Z,5.20
2022-12-04T14:19:01.137Z,5.20
2022-12-04T14:21:40.491Z,5.20
2022-12-04T14:24:28.691Z,5.20
2022-12-04T14:27:11.117Z,5.30
2022-12-04T14:29:51.218Z,5.20
2022-12-04T14:32:26.326Z,5.20
2022-12-04T14:34:54.490Z,5.10
2022-12-04T14:37:33.132Z,5.10
2022-12-04T14:40:01.744Z,5.10
2022-12-04T14:42:37.461Z,5.00
2022-12-04T14:45:21.660Z,4.90
2022-12-04T14:48:31.499Z,4.90
2022-12-04T14:51:04.502Z,4.90
2022-12-04T14:54:12.556Z,4.90
2022-12-04T14:57:06.709Z,4.80
2022-12-04T14:59:49.887Z,4.80
2022-12-04T15:02:22.690Z,4.70
2022-12-04T15:04:51.038Z,4.70
2022-12-04T15:07:31.665Z,4.70
2022-12-04T15:10:20.158Z,4.70
2022-12-04T15:13:04.957Z,4.70
2022-12-04T15:15:32.066Z,4.70
2022-12-04T15:18:12.251Z,4.70
2022-12-04T15:20:52.664Z,4.70
2022-12-04T15:23:29.488Z,4.70
2022-12-04T15:25:58.585Z,4.70
2022-12-04T15:28:48.482Z,4.70
2022-12-04T15:31:22.349Z,4.70
2022-12-04T15:33:52.560Z,4.70
2022-12-04T15:36:45.829Z,4.70
2022-12-04T15:39:25.593Z,4.70
2022-12-04T15:42:03.413Z,4.70
2022-12-04T15:44:32.814Z,4.70
2022-12-04T15:47:02.532Z,4.70
2022-12-04T15:49:31.528Z,4.70
2022-12-04T15:52:13.875Z,4.70
2022-12-04T15:55:00.777Z,4.70
2022-12-04T15:57:40.867Z,4.70
2022-12-04T16:00:24.283Z,4.70
2022-12-04T16:02:51.308Z,4.60
2022-12-04T16:05:21.253Z,4.60
2022-12-04T16:08:20.645Z,4.60
2022-12-04T16:11:00.988Z,4.60
2022-12-04T16:13:34.144Z,4.70
2022-12-04T16:16:04.954Z,4.60
2022-12-04T16:18:32.053Z,4.60
2022-12-04T16:20:59.071Z,4.60
2022-12-04T16:23:26.253Z,4.50
2022-12-04T16:25:53.884Z,4.50
2022-12-04T16:28:21.352Z,4.50
2022-12-04T16:30:52.135Z,4.40
2022-12-04T16:33:19.697Z,4.40
2022-12-04T16:35:46.675Z,4.40
2022-12-04T16:38:17.330Z,4.40
2022-12-04T16:40:46.195Z,4.40
2022-12-04T16:43:15.516Z,4.40
2022-12-04T16:45:46.543Z,4.30
2022-12-04T16:48:14.222Z,4.30
2022-12-04T16:50:41.632Z,4.30
2022-12-04T16:53:10.060Z,4.30
2022-12-04T16:55:39.389Z,4.30
2022-12-04T16:58:07.987Z,4.40
2022-12-04T17:00:36.520Z,4.40
2022-12-04T17:03:04.569Z,4.40
2022-12-04T17:05:35.724Z,4.40
2022-12-04T17:08:02.721Z,4.40
2022-12-04T17:10:30.177Z,4.40
2022-12-04T17:12:57.232Z,4.50
2022-12-04T17:15:24.481Z,4.50
2022-12-04T17:17:51.744Z,4.50
2022-12-04T17:20:21.372Z,4.40
2022-12-04T17:22:49.118Z,4.40
2022-12-04T17:25:16.977Z,4.40
2022-12-04T17:27:44.359Z,4.40
2022-12-04T17:30:12.429Z,4.30
2022-12-04T17:32:39.559Z,4.20
2022-12-04T17:35:08.240Z,4.10
2022-12-04T17:37:36.234Z,4.10
2022-12-04T17:40:03.530Z,4.10
2022-12-04T17:42:30.447Z,4.00
2022-12-04T17:44:57.668Z,4.00
2022-12-04T17:47:24.748Z,3.90
2022-12-04T17:49:51.761Z,3.90
2022-12-04T17:52:22.663Z,3.80
2022-12-04T17:54:50.930Z,3.70
2022-12-04T17:57:19.320Z,3.70
2022-12-04T17:59:46.412Z,3.70
2022-12-04T18:02:13.599Z,3.70
2022-12-04T18:04:41.354Z,3.70
2022-12-04T18:07:08.909Z,3.70
2022-12-04T18:09:36.670Z,3.60
2022-12-04T18:12:03.811Z,3.70
2022-12-04T18:14:31.810Z,3.60
2022-12-04T18:16:59.039Z,3.70
2022-12-04T18:19:28.215Z,3.70
2022-12-04T18:21:55.990Z,3.60
2022-12-04T18:24:24.455Z,3.70
2022-12-04T18:26:51.860Z,3.80
2022-12-04T18:29:21.632Z,3.70
2022-12-04T18:31:49.071Z,3.70
2022-12-04T18:34:16.072Z,3.70
2022-12-04T18:36:45.481Z,3.70
2022-12-04T18:39:18.388Z,3.70
2022-12-04T18:41:45.954Z,3.70
2022-12-04T18:44:13.622Z,3.70
2022-12-04T18:46:41.198Z,3.70
2022-12-04T18:49:09.309Z,3.70
2022-12-04T18:51:49.210Z,3.80
2022-12-04T18:54:21.000Z,3.80
2022-12-04T18:56:48.054Z,3.80
2022-12-04T18:59:21.192Z,3.90
2022-12-04T19:01:50.394Z,4.00
2022-12-04T19:04:19.436Z,4.00
2022-12-04T19:06:48.849Z,4.00
2022-12-04T19:09:19.575Z,4.00
2022-12-04T19:11:47.174Z,4.00
2022-12-04T19:14:22.712Z,4.00
2022-12-04T19:16:51.451Z,4.00
2022-12-04T19:19:18.644Z,4.00
2022-12-04T19:21:45.643Z,4.10
2022-12-04T19:24:13.214Z,4.20
2022-12-04T19:26:40.629Z,4.20
2022-12-04T19:29:08.136Z,4.20
2022-12-04T19:31:37.307Z,4.10
2022-12-04T19:34:06.264Z,4.10
2022-12-04T19:36:34.626Z,4.00
2022-12-04T19:39:04.934Z,3.90
2022-12-04T19:41:37.273Z,3.80
2022-12-04T19:44:20.010Z,3.80
2022-12-04T19:46:52.033Z,3.80
2022-12-04T19:49:19.141Z,3.70
2022-12-04T19:51:47.680Z,3.70
2022-12-04T19:54:15.219Z,3.70
2022-12-04T19:56:45.616Z,3.70
2022-12-04T19:59:13.306Z,3.80
2022-12-04T20:01:40.276Z,3.70
2022-12-04T20:04:09.062Z,3.80
2022-12-04T20:06:38.773Z,3.80
2022-12-04T20:09:08.864Z,3.70
2022-12-04T20:11:36.832Z,3.70
2022-12-04T20:14:05.330Z,3.70
2022-12-04T20:16:33.912Z,3.80
2022-12-04T20:19:03.641Z,3.80
2022-12-04T20:21:32.003Z,3.80
2022-12-04T20:24:02.484Z,3.80
2022-12-04T20:26:32.730Z,3.90
2022-12-04T20:29:00.760Z,3.90
2022-12-04T20:31:33.566Z,3.90
2022-12-04T20:34:02.492Z,3.90
2022-12-04T20:36:30.706Z,3.90
2022-12-04T20:38:59.299Z,4.00
2022-12-04T20:41:28.226Z,3.90
2022-12-04T20:43:56.157Z,4.00
2022-12-04T20:46:29.151Z,4.00
2022-12-04T20:48:56.146Z,4.00
2022-12-04T20:51:25.402Z,4.00
2022-12-04T20:53:53.735Z,4.00
2022-12-04T20:56:25.998Z,3.90
2022-12-04T20:59:00.403Z,3.90
2022-12-04T21:01:28.403Z,3.80
2022-12-04T21:03:58.225Z,3.80
2022-12-04T21:06:34.014Z,3.80
2022-12-04T21:09:05.834Z,3.70
2022-12-04T21:11:35.437Z,3.70
2022-12-04T21:14:23.293Z,3.60
2022-12-04T21:16:50.516Z,3.60
2022-12-04T21:19:20.553Z,3.50
2022-12-04T21:21:47.899Z,3.50
2022-12-04T21:24:17.265Z,3.40
2022-12-04T21:26:44.829Z,3.40
2022-12-04T21:29:11.873Z,3.30
2022-12-04T21:31:39.128Z,3.30
2022-12-04T21:34:10.253Z,3.20
2022-12-04T21:36:37.181Z,3.20
2022-12-04T21:39:04.726Z,3.10
2022-12-04T21:41:50.489Z,3.10
2022-12-04T21:44:20.305Z,3.00
2022-12-04T21:46:47.392Z,3.00
2022-12-04T21:49:15.487Z,3.10
2022-12-04T21:51:59.068Z,3.00
2022-12-04T21:54:27.737Z,3.00
2022-12-04T21:56:55.434Z,3.00
2022-12-04T21:59:22.980Z,3.00
2022-12-04T22:01:50.070Z,3.00
2022-12-04T22:04:17.287Z,3.00
2022-12-04T22:06:44.604Z,3.10
2022-12-04T22:09:12.753Z,3.10
2022-12-04T22:11:41.610Z,3.10
2022-12-04T22:14:09.527Z,3.10
2022-12-04T22:16:41.547Z,3.10
2022-12-04T22:19:10.752Z,3.10
2022-12-04T22:21:37.866Z,3.10
2022-12-04T22:24:05.506Z,3.10
2022-12-04T22:26:32.472Z,3.20
2022-12-04T22:28:59.400Z,3.20
2022-12-04T22:31:28.997Z,3.20
2022-12-04T22:33:58.127Z,3.20
2022-12-04T22:36:28.288Z,3.30
2022-12-04T22:39:11.266Z,3.30
2022-12-04T22:41:38.842Z,3.30
2022-12-04T22:44:06.286Z,3.30
2022-12-04T22:46:34.088Z,3.40
2022-12-04T22:49:01.095Z,3.30
2022-12-04T22:51:28.745Z,3.30
2022-12-04T22:53:57.679Z,3.30
2022-12-04T22:56:32.119Z,3.20
2022-12-04T22:58:59.878Z,3.10
2022-12-04T23:01:29.192Z,3.00
2022-12-04T23:03:56.553Z,3.00
2022-12-04T23:06:26.266Z,2.90
2022-12-04T23:08:57.918Z,3.00
2022-12-04T23:11:25.854Z,3.00
2022-12-04T23:13:57.217Z,3.00
2022-12-04T23:16:24.880Z,3.00
2022-12-04T23:18:52.266Z,3.00
2022-12-04T23:21:21.025Z,3.00
2022-12-04T23:23:49.117Z,3.00
2022-12-04T23:26:19.589Z,3.00
2022-12-04T23:28:46.959Z,3.10
2022-12-04T23:31:14.281Z,3.10
2022-12-04T23:33:41.859Z,3.10
2022-12-04T23:36:10.506Z,3.10
2022-12-04T23:38:39.054Z,3.10
2022-12-04T23:41:12.035Z,3.10
2022-12-04T23:43:39.813Z,3.10
2022-12-04T23:46:11.174Z,3.10
2022-12-04T23:48:39.734Z,3.10
2022-12-04T23:51:07.512Z,3.20
2022-12-04T23:53:34.826Z,3.10
2022-12-04T23:56:12.917Z,3.10
2022-12-04T23:58:40.746Z,3.10
